createdAt,value
2022-09-15T00:04:03.418Z,25.48
2022-09-15T00:24:03.131Z,25.49
2022-09-15T00:44:03.368Z,25.52
2022-09-15T01:04:03.403Z,25.54
2022-09-15T01:24:03.317Z,25.55
2022-09-15T01:44:03.314Z,25.56
2022-09-15T02:04:03.279Z,25.58
2022-09-15T02:24:03.245Z,25.59
2022-09-15T02:44:03.240Z,25.61
2022-09-15T03:04:03.228Z,25.63
2022-09-15T03:24:03.176Z,25.64
2022-09-15T03:44:03.315Z,25.66
2022-09-15T04:04:03.118Z,25.68
2022-09-15T04:24:03.100Z,25.69
2022-09-15T04:44:03.065Z,25.7
2022-09-15T05:04:03.044Z,25.71
2022-09-15T05:24:03.027Z,25.71
2022-09-15T06:04:02.970Z,25.74
2022-09-15T06:24:02.944Z,25.75
2022-09-15T06:44:02.910Z,25.76
2022-09-15T07:04:02.890Z,25.76
2022-09-15T08:04:02.801Z,25.78
2022-09-15T08:24:02.800Z,25.78
2022-09-15T08:44:02.741Z,25.78
2022-09-15T09:04:02.709Z,25.77
2022-09-15T09:24:02.678Z,25.75
2022-09-15T09:44:02.629Z,25.73
2022-09-15T10:04:02.611Z,25.71
2022-09-15T10:24:02.577Z,25.7
2022-09-15T10:44:02.550Z,25.69
2022-09-15T11:04:02.522Z,25.68
2022-09-15T11:24:02.499Z,25.66
2022-09-15T11:44:02.465Z,25.64
2022-09-15T12:04:02.466Z,25.61
2022-09-15T12:24:02.391Z,25.58
2022-09-15T12:44:02.364Z,25.56
2022-09-15T13:04:02.318Z,25.54
2022-09-15T13:24:02.334Z,25.5
2022-09-15T13:44:02.267Z,25.47
2022-09-15T14:04:01.953Z,25.44
2022-09-15T14:24:02.194Z,25.41
2022-09-15T14:44:02.158Z,25.39
2022-09-15T15:04:01.863Z,25.36
2022-09-15T15:24:02.081Z,25.34
2022-09-15T16:04:02.061Z,25.32
2022-09-15T16:24:01.998Z,25.31
2022-09-15T16:44:01.984Z,25.29
2022-09-15T17:24:01.921Z,25.27
2022-09-15T17:44:01.882Z,25.27
2022-09-15T18:24:01.830Z,25.26
2022-09-15T18:44:01.792Z,25.26
2022-09-15T20:24:01.660Z,25.24
2022-09-15T20:44:01.635Z,25.24
2022-09-15T21:04:01.614Z,25.24
2022-09-15T21:24:01.587Z,25.23
2022-09-15T21:44:01.287Z,25.23
2022-09-15T22:04:01.539Z,25.23
2022-09-15T22:24:01.273Z,25.22
2022-09-15T22:44:01.474Z,25.22
2022-09-15T23:04:01.458Z,25.22
2022-09-15T23:24:01.445Z,25.21
2022-09-15T23:44:01.406Z,25.21
